sensor_id;sensor_type;location;lat;lon;timestamp;P1;durP1;ratioP1;P2;durP2;ratioP2
46561;SDS011;32289;42.688;23.330;2023-02-01T00:01:07;3.35;;;1.73;;
46561;SDS011;32289;42.688;23.330;2023-02-01T00:04:48;4.72;;;2.30;;
46561;SDS011;32289;42.688;23.330;2023-02-01T00:08:29;4.60;;;2.33;;
46561;SDS011;32289;42.688;23.330;2023-02-01T00:12:10;8.18;;;2.17;;
46561;SDS011;32289;42.688;23.330;2023-02-01T00:15:50;8.95;;;2.28;;
46561;SDS011;32289;42.688;23.330;2023-02-01T00:19:31;4.68;;;2.35;;
46561;SDS011;32289;42.688;23.330;2023-02-01T00:23:12;4.82;;;2.08;;
46561;SDS011;32289;42.688;23.330;2023-02-01T00:26:52;7.65;;;2.63;;
46561;SDS011;32289;42.688;23.330;2023-02-01T00:30:33;3.13;;;1.83;;
46561;SDS011;32289;42.688;23.330;2023-02-01T00:34:15;4.38;;;2.33;;
46561;SDS011;32289;42.688;23.330;2023-02-01T00:37:56;8.50;;;2.60;;
46561;SDS011;32289;42.688;23.330;2023-02-01T00:41:39;3.88;;;1.98;;
46561;SDS011;32289;42.688;23.330;2023-02-01T00:45:20;3.88;;;2.10;;
46561;SDS011;32289;42.688;23.330;2023-02-01T00:49:01;4.60;;;2.65;;
46561;SDS011;32289;42.688;23.330;2023-02-01T00:52:41;3.58;;;2.10;;
46561;SDS011;32289;42.688;23.330;2023-02-01T00:56:22;4.47;;;2.13;;
46561;SDS011;32289;42.688;23.330;2023-02-01T01:00:03;3.88;;;2.35;;
46561;SDS011;32289;42.688;23.330;2023-02-01T01:03:45;5.05;;;2.42;;
46561;SDS011;32289;42.688;23.330;2023-02-01T01:07:27;2.92;;;1.70;;
46561;SDS011;32289;42.688;23.330;2023-02-01T01:11:09;8.80;;;1.98;;
46561;SDS011;32289;42.688;23.330;2023-02-01T01:14:55;2.72;;;1.55;;
46561;SDS011;32289;42.688;23.330;2023-02-01T01:18:36;3.75;;;2.38;;
46561;SDS011;32289;42.688;23.330;2023-02-01T01:22:17;2.53;;;1.83;;
46561;SDS011;32289;42.688;23.330;2023-02-01T01:26:00;3.97;;;2.15;;
46561;SDS011;32289;42.688;23.330;2023-02-01T01:29:45;2.45;;;1.50;;
46561;SDS011;32289;42.688;23.330;2023-02-01T01:33:26;4.80;;;1.60;;
46561;SDS011;32289;42.688;23.330;2023-02-01T01:37:06;9.65;;;1.83;;
46561;SDS011;32289;42.688;23.330;2023-02-01T01:40:47;3.22;;;1.60;;
46561;SDS011;32289;42.688;23.330;2023-02-01T01:48:38;3.00;;;1.42;;
46561;SDS011;32289;42.688;23.330;2023-02-01T01:52:18;3.08;;;1.85;;
46561;SDS011;32289;42.688;23.330;2023-02-01T01:55:59;2.15;;;1.48;;
46561;SDS011;32289;42.688;23.330;2023-02-01T01:59:41;1.30;;;1.20;;
46561;SDS011;32289;42.688;23.330;2023-02-01T02:03:30;3.15;;;1.02;;
46561;SDS011;32289;42.688;23.330;2023-02-01T02:07:21;2.60;;;1.13;;
46561;SDS011;32289;42.688;23.330;2023-02-01T02:11:06;1.75;;;1.30;;
46561;SDS011;32289;42.688;23.330;2023-02-01T02:14:47;2.38;;;1.20;;
46561;SDS011;32289;42.688;23.330;2023-02-01T02:18:53;3.22;;;1.60;;
46561;SDS011;32289;42.688;23.330;2023-02-01T02:46:22;2.95;;;1.63;;
46561;SDS011;32289;42.688;23.330;2023-02-01T02:54:43;2.47;;;1.70;;
46561;SDS011;32289;42.688;23.330;2023-02-01T02:58:27;2.00;;;1.15;;
46561;SDS011;32289;42.688;23.330;2023-02-01T03:02:26;3.53;;;2.10;;
46561;SDS011;32289;42.688;23.330;2023-02-01T03:06:26;4.22;;;1.25;;
46561;SDS011;32289;42.688;23.330;2023-02-01T03:10:08;3.88;;;1.50;;
46561;SDS011;32289;42.688;23.330;2023-02-01T03:13:58;3.65;;;1.92;;
46561;SDS011;32289;42.688;23.330;2023-02-01T03:17:43;1.45;;;0.98;;
46561;SDS011;32289;42.688;23.330;2023-02-01T03:21:30;2.72;;;1.30;;
46561;SDS011;32289;42.688;23.330;2023-02-01T03:25:29;3.58;;;1.63;;
46561;SDS011;32289;42.688;23.330;2023-02-01T03:29:13;2.88;;;1.65;;
46561;SDS011;32289;42.688;23.330;2023-02-01T03:32:59;1.40;;;1.25;;
46561;SDS011;32289;42.688;23.330;2023-02-01T03:36:50;2.88;;;1.65;;
46561;SDS011;32289;42.688;23.330;2023-02-01T03:40:36;2.08;;;1.10;;
46561;SDS011;32289;42.688;23.330;2023-02-01T03:44:23;1.88;;;1.42;;
46561;SDS011;32289;42.688;23.330;2023-02-01T03:48:05;2.13;;;0.85;;
46561;SDS011;32289;42.688;23.330;2023-02-01T03:51:47;5.10;;;1.58;;
46561;SDS011;32289;42.688;23.330;2023-02-01T03:55:30;2.35;;;1.13;;
46561;SDS011;32289;42.688;23.330;2023-02-01T03:59:12;3.47;;;1.38;;
46561;SDS011;32289;42.688;23.330;2023-02-01T04:02:53;2.20;;;1.20;;
46561;SDS011;32289;42.688;23.330;2023-02-01T04:06:34;2.92;;;1.30;;
46561;SDS011;32289;42.688;23.330;2023-02-01T04:10:16;2.95;;;1.55;;
46561;SDS011;32289;42.688;23.330;2023-02-01T04:13:56;2.20;;;1.10;;
46561;SDS011;32289;42.688;23.330;2023-02-01T04:17:37;5.85;;;1.90;;
46561;SDS011;32289;42.688;23.330;2023-02-01T04:21:18;2.22;;;1.48;;
46561;SDS011;32289;42.688;23.330;2023-02-01T04:24:59;1.63;;;1.02;;
46561;SDS011;32289;42.688;23.330;2023-02-01T04:28:39;4.85;;;1.67;;
46561;SDS011;32289;42.688;23.330;2023-02-01T04:32:20;1.75;;;1.25;;
46561;SDS011;32289;42.688;23.330;2023-02-01T04:36:01;2.17;;;1.35;;
46561;SDS011;32289;42.688;23.330;2023-02-01T04:39:41;4.93;;;1.60;;
46561;SDS011;32289;42.688;23.330;2023-02-01T04:43:22;2.33;;;1.30;;
46561;SDS011;32289;42.688;23.330;2023-02-01T04:47:03;6.25;;;1.65;;
46561;SDS011;32289;42.688;23.330;2023-02-01T04:50:44;3.72;;;1.65;;
46561;SDS011;32289;42.688;23.330;2023-02-01T04:54:27;4.47;;;2.28;;
46561;SDS011;32289;42.688;23.330;2023-02-01T04:58:08;6.35;;;2.45;;
46561;SDS011;32289;42.688;23.330;2023-02-01T05:01:49;5.18;;;1.42;;
46561;SDS011;32289;42.688;23.330;2023-02-01T05:05:30;7.55;;;2.13;;
46561;SDS011;32289;42.688;23.330;2023-02-01T05:09:11;4.03;;;2.10;;
46561;SDS011;32289;42.688;23.330;2023-02-01T05:12:51;3.28;;;1.85;;
46561;SDS011;32289;42.688;23.330;2023-02-01T05:16:50;4.78;;;2.22;;
46561;SDS011;32289;42.688;23.330;2023-02-01T05:20:31;3.03;;;1.67;;
46561;SDS011;32289;42.688;23.330;2023-02-01T05:24:12;3.85;;;1.70;;
46561;SDS011;32289;42.688;23.330;2023-02-01T05:27:53;4.72;;;2.50;;
46561;SDS011;32289;42.688;23.330;2023-02-01T05:31:34;3.78;;;2.40;;
46561;SDS011;32289;42.688;23.330;2023-02-01T05:35:15;4.25;;;2.40;;
46561;SDS011;32289;42.688;23.330;2023-02-01T05:38:56;3.40;;;2.50;;
46561;SDS011;32289;42.688;23.330;2023-02-01T05:42:37;5.28;;;2.13;;
46561;SDS011;32289;42.688;23.330;2023-02-01T05:46:18;5.70;;;2.50;;
46561;SDS011;32289;42.688;23.330;2023-02-01T05:49:58;9.18;;;2.60;;
46561;SDS011;32289;42.688;23.330;2023-02-01T05:53:39;3.58;;;2.00;;
46561;SDS011;32289;42.688;23.330;2023-02-01T05:57:20;3.95;;;2.55;;
46561;SDS011;32289;42.688;23.330;2023-02-01T06:01:01;10.43;;;2.35;;
46561;SDS011;32289;42.688;23.330;2023-02-01T06:04:43;4.93;;;2.65;;
46561;SDS011;32289;42.688;23.330;2023-02-01T06:08:24;24.63;;;3.10;;
46561;SDS011;32289;42.688;23.330;2023-02-01T06:12:06;5.30;;;2.35;;
46561;SDS011;32289;42.688;23.330;2023-02-01T06:15:47;3.42;;;1.70;;
46561;SDS011;32289;42.688;23.330;2023-02-01T06:19:28;6.43;;;1.92;;
46561;SDS011;32289;42.688;23.330;2023-02-01T06:23:08;6.22;;;3.22;;
46561;SDS011;32289;42.688;23.330;2023-02-01T06:26:49;3.10;;;1.80;;
46561;SDS011;32289;42.688;23.330;2023-02-01T06:30:30;5.88;;;1.70;;
46561;SDS011;32289;42.688;23.330;2023-02-01T06:34:10;3.75;;;1.40;;
46561;SDS011;32289;42.688;23.330;2023-02-01T06:37:51;3.47;;;1.40;;
46561;SDS011;32289;42.688;23.330;2023-02-01T06:41:31;3.92;;;1.83;;
46561;SDS011;32289;42.688;23.330;2023-02-01T06:45:14;6.18;;;2.13;;
46561;SDS011;32289;42.688;23.330;2023-02-01T06:48:55;5.53;;;2.30;;
46561;SDS011;32289;42.688;23.330;2023-02-01T06:52:35;2.58;;;1.65;;
46561;SDS011;32289;42.688;23.330;2023-02-01T06:56:16;4.80;;;1.77;;
46561;SDS011;32289;42.688;23.330;2023-02-01T06:59:57;3.30;;;1.58;;
46561;SDS011;32289;42.688;23.330;2023-02-01T07:03:38;2.13;;;1.45;;
46561;SDS011;32289;42.688;23.330;2023-02-01T07:07:19;7.40;;;1.92;;
46561;SDS011;32289;42.688;23.330;2023-02-01T07:11:03;6.65;;;2.35;;
46561;SDS011;32289;42.688;23.330;2023-02-01T07:14:45;3.70;;;1.75;;
46561;SDS011;32289;42.688;23.330;2023-02-01T07:18:26;8.07;;;2.05;;
46561;SDS011;32289;42.688;23.330;2023-02-01T07:22:08;6.18;;;1.98;;
46561;SDS011;32289;42.688;23.330;2023-02-01T07:25:52;3.03;;;2.05;;
46561;SDS011;32289;42.688;23.330;2023-02-01T07:29:33;10.95;;;2.58;;
46561;SDS011;32289;42.688;23.330;2023-02-01T07:33:14;4.40;;;1.63;;
46561;SDS011;32289;42.688;23.330;2023-02-01T07:36:55;1.90;;;1.30;;
46561;SDS011;32289;42.688;23.330;2023-02-01T07:40:35;2.45;;;1.60;;
46561;SDS011;32289;42.688;23.330;2023-02-01T07:44:16;3.28;;;1.55;;
46561;SDS011;32289;42.688;23.330;2023-02-01T07:48:02;6.97;;;2.20;;
46561;SDS011;32289;42.688;23.330;2023-02-01T07:51:44;7.32;;;2.13;;
46561;SDS011;32289;42.688;23.330;2023-02-01T07:55:24;6.22;;;2.05;;
46561;SDS011;32289;42.688;23.330;2023-02-01T07:59:06;6.15;;;1.95;;
46561;SDS011;32289;42.688;23.330;2023-02-01T08:02:47;4.03;;;1.65;;
46561;SDS011;32289;42.688;23.330;2023-02-01T08:06:29;2.83;;;1.77;;
46561;SDS011;32289;42.688;23.330;2023-02-01T08:10:11;6.78;;;1.95;;
46561;SDS011;32289;42.688;23.330;2023-02-01T08:13:52;3.78;;;1.83;;
46561;SDS011;32289;42.688;23.330;2023-02-01T08:17:33;4.63;;;2.05;;
46561;SDS011;32289;42.688;23.330;2023-02-01T08:21:18;5.38;;;1.95;;
46561;SDS011;32289;42.688;23.330;2023-02-01T08:25:02;2.08;;;1.33;;
46561;SDS011;32289;42.688;23.330;2023-02-01T08:28:44;4.05;;;1.63;;
46561;SDS011;32289;42.688;23.330;2023-02-01T08:32:26;3.53;;;1.50;;
46561;SDS011;32289;42.688;23.330;2023-02-01T08:36:08;3.60;;;1.88;;
46561;SDS011;32289;42.688;23.330;2023-02-01T08:39:50;4.57;;;1.77;;
46561;SDS011;32289;42.688;23.330;2023-02-01T08:43:32;4.50;;;2.65;;
46561;SDS011;32289;42.688;23.330;2023-02-01T08:47:12;7.85;;;2.03;;
46561;SDS011;32289;42.688;23.330;2023-02-01T08:50:53;6.05;;;2.90;;
46561;SDS011;32289;42.688;23.330;2023-02-01T08:54:34;5.43;;;1.60;;
46561;SDS011;32289;42.688;23.330;2023-02-01T08:58:15;4.50;;;1.95;;
46561;SDS011;32289;42.688;23.330;2023-02-01T09:01:56;10.95;;;2.10;;
46561;SDS011;32289;42.688;23.330;2023-02-01T09:05:38;16.52;;;3.05;;
46561;SDS011;32289;42.688;23.330;2023-02-01T09:09:18;13.38;;;6.43;;
46561;SDS011;32289;42.688;23.330;2023-02-01T09:12:59;5.75;;;2.20;;
46561;SDS011;32289;42.688;23.330;2023-02-01T09:16:40;10.38;;;2.80;;
46561;SDS011;32289;42.688;23.330;2023-02-01T09:20:21;13.52;;;2.80;;
46561;SDS011;32289;42.688;23.330;2023-02-01T09:24:04;3.13;;;1.75;;
46561;SDS011;32289;42.688;23.330;2023-02-01T09:27:45;13.07;;;4.47;;
46561;SDS011;32289;42.688;23.330;2023-02-01T09:31:25;2.88;;;1.73;;
46561;SDS011;32289;42.688;23.330;2023-02-01T09:35:06;5.00;;;1.50;;
46561;SDS011;32289;42.688;23.330;2023-02-01T09:38:47;4.78;;;1.23;;
46561;SDS011;32289;42.688;23.330;2023-02-01T09:46:33;4.93;;;2.03;;
46561;SDS011;32289;42.688;23.330;2023-02-01T09:50:18;7.97;;;2.10;;
46561;SDS011;32289;42.688;23.330;2023-02-01T09:54:15;3.78;;;1.75;;
46561;SDS011;32289;42.688;23.330;2023-02-01T09:58:36;3.97;;;2.30;;
46561;SDS011;32289;42.688;23.330;2023-02-01T10:02:20;4.18;;;1.95;;
46561;SDS011;32289;42.688;23.330;2023-02-01T10:06:06;12.18;;;3.78;;
46561;SDS011;32289;42.688;23.330;2023-02-01T10:10:22;2.83;;;1.67;;
46561;SDS011;32289;42.688;23.330;2023-02-01T10:22:01;7.07;;;2.20;;
46561;SDS011;32289;42.688;23.330;2023-02-01T10:29:47;6.65;;;1.73;;
46561;SDS011;32289;42.688;23.330;2023-02-01T10:33:44;4.35;;;1.98;;
46561;SDS011;32289;42.688;23.330;2023-02-01T10:37:28;3.60;;;1.13;;
46561;SDS011;32289;42.688;23.330;2023-02-01T10:41:18;4.03;;;1.77;;
46561;SDS011;32289;42.688;23.330;2023-02-01T10:45:02;6.15;;;1.77;;
46561;SDS011;32289;42.688;23.330;2023-02-01T10:48:44;5.45;;;2.00;;
46561;SDS011;32289;42.688;23.330;2023-02-01T10:52:30;3.97;;;1.83;;
46561;SDS011;32289;42.688;23.330;2023-02-01T10:56:24;4.47;;;1.73;;
46561;SDS011;32289;42.688;23.330;2023-02-01T11:00:20;5.68;;;2.00;;
46561;SDS011;32289;42.688;23.330;2023-02-01T11:04:01;5.97;;;2.10;;
46561;SDS011;32289;42.688;23.330;2023-02-01T11:07:49;3.58;;;1.45;;
46561;SDS011;32289;42.688;23.330;2023-02-01T11:15:27;4.47;;;1.65;;
46561;SDS011;32289;42.688;23.330;2023-02-01T11:19:08;3.45;;;1.52;;
46561;SDS011;32289;42.688;23.330;2023-02-01T11:22:57;2.33;;;1.25;;
46561;SDS011;32289;42.688;23.330;2023-02-01T11:26:41;5.63;;;1.65;;
46561;SDS011;32289;42.688;23.330;2023-02-01T11:30:27;2.47;;;1.20;;
46561;SDS011;32289;42.688;23.330;2023-02-01T11:34:15;3.10;;;1.73;;
46561;SDS011;32289;42.688;23.330;2023-02-01T11:37:58;2.90;;;1.10;;
46561;SDS011;32289;42.688;23.330;2023-02-01T11:41:41;4.90;;;1.88;;
46561;SDS011;32289;42.688;23.330;2023-02-01T11:45:30;4.05;;;2.03;;
46561;SDS011;32289;42.688;23.330;2023-02-01T12:13:09;5.70;;;1.60;;
46561;SDS011;32289;42.688;23.330;2023-02-01T12:24:51;7.68;;;2.38;;
46561;SDS011;32289;42.688;23.330;2023-02-01T12:28:42;3.47;;;1.80;;
46561;SDS011;32289;42.688;23.330;2023-02-01T12:40:48;2.42;;;1.38;;
46561;SDS011;32289;42.688;23.330;2023-02-01T12:44:56;2.08;;;0.95;;
46561;SDS011;32289;42.688;23.330;2023-02-01T12:48:50;7.95;;;2.78;;
46561;SDS011;32289;42.688;23.330;2023-02-01T12:52:44;5.77;;;2.57;;
46561;SDS011;32289;42.688;23.330;2023-02-01T13:00:23;3.20;;;1.27;;
46561;SDS011;32289;42.688;23.330;2023-02-01T13:04:19;3.88;;;0.80;;
46561;SDS011;32289;42.688;23.330;2023-02-01T13:08:13;6.65;;;1.30;;
46561;SDS011;32289;42.688;23.330;2023-02-01T13:11:59;4.65;;;1.65;;
46561;SDS011;32289;42.688;23.330;2023-02-01T13:15:49;1.52;;;0.63;;
46561;SDS011;32289;42.688;23.330;2023-02-01T13:19:45;3.15;;;1.38;;
46561;SDS011;32289;42.688;23.330;2023-02-01T13:23:37;7.70;;;3.60;;
46561;SDS011;32289;42.688;23.330;2023-02-01T13:27:20;2.47;;;0.95;;
46561;SDS011;32289;42.688;23.330;2023-02-01T13:43:15;7.20;;;2.75;;
46561;SDS011;32289;42.688;23.330;2023-02-01T13:47:08;5.57;;;2.58;;
46561;SDS011;32289;42.688;23.330;2023-02-01T13:51:32;2.30;;;1.13;;
46561;SDS011;32289;42.688;23.330;2023-02-01T13:59:00;7.68;;;2.85;;
46561;SDS011;32289;42.688;23.330;2023-02-01T14:04:03;4.93;;;1.52;;
46561;SDS011;32289;42.688;23.330;2023-02-01T14:07:36;6.65;;;1.98;;
46561;SDS011;32289;42.688;23.330;2023-02-01T14:11:36;8.90;;;2.25;;
46561;SDS011;32289;42.688;23.330;2023-02-01T14:15:26;3.03;;;1.10;;
46561;SDS011;32289;42.688;23.330;2023-02-01T14:19:08;6.20;;;1.20;;
46561;SDS011;32289;42.688;23.330;2023-02-01T14:23:03;4.82;;;1.55;;
46561;SDS011;32289;42.688;23.330;2023-02-01T14:26:50;3.42;;;1.73;;
46561;SDS011;32289;42.688;23.330;2023-02-01T14:30:35;3.65;;;1.50;;
46561;SDS011;32289;42.688;23.330;2023-02-01T14:34:51;6.00;;;1.42;;
46561;SDS011;32289;42.688;23.330;2023-02-01T14:38:26;10.68;;;3.78;;
46561;SDS011;32289;42.688;23.330;2023-02-01T14:46:20;7.07;;;2.88;;
46561;SDS011;32289;42.688;23.330;2023-02-01T14:50:39;12.07;;;4.00;;
46561;SDS011;32289;42.688;23.330;2023-02-01T14:54:26;5.53;;;2.08;;
46561;SDS011;32289;42.688;23.330;2023-02-01T15:02:30;7.85;;;2.83;;
46561;SDS011;32289;42.688;23.330;2023-02-01T15:06:25;6.53;;;3.33;;
46561;SDS011;32289;42.688;23.330;2023-02-01T15:10:07;11.32;;;4.30;;
46561;SDS011;32289;42.688;23.330;2023-02-01T15:13:49;7.30;;;2.72;;
46561;SDS011;32289;42.688;23.330;2023-02-01T15:17:33;3.10;;;1.55;;
46561;SDS011;32289;42.688;23.330;2023-02-01T15:21:21;2.40;;;1.27;;
46561;SDS011;32289;42.688;23.330;2023-02-01T15:25:03;5.35;;;2.25;;
46561;SDS011;32289;42.688;23.330;2023-02-01T15:28:44;5.60;;;1.73;;
46561;SDS011;32289;42.688;23.330;2023-02-01T15:32:43;8.45;;;3.15;;
46561;SDS011;32289;42.688;23.330;2023-02-01T15:36:24;4.60;;;2.57;;
46561;SDS011;32289;42.688;23.330;2023-02-01T15:47:35;4.80;;;2.25;;
46561;SDS011;32289;42.688;23.330;2023-02-01T15:51:17;5.25;;;1.95;;
46561;SDS011;32289;42.688;23.330;2023-02-01T15:55:00;4.55;;;1.92;;
46561;SDS011;32289;42.688;23.330;2023-02-01T15:58:45;9.10;;;3.78;;
46561;SDS011;32289;42.688;23.330;2023-02-01T16:02:33;2.03;;;1.27;;
46561;SDS011;32289;42.688;23.330;2023-02-01T16:10:02;12.65;;;4.22;;
46561;SDS011;32289;42.688;23.330;2023-02-01T16:13:59;16.00;;;7.93;;
46561;SDS011;32289;42.688;23.330;2023-02-01T16:17:41;3.83;;;2.28;;
46561;SDS011;32289;42.688;23.330;2023-02-01T16:21:23;5.10;;;1.98;;
46561;SDS011;32289;42.688;23.330;2023-02-01T16:25:04;4.32;;;1.88;;
46561;SDS011;32289;42.688;23.330;2023-02-01T16:28:45;22.40;;;6.25;;
46561;SDS011;32289;42.688;23.330;2023-02-01T16:32:27;6.22;;;2.22;;
46561;SDS011;32289;42.688;23.330;2023-02-01T16:36:09;10.35;;;3.95;;
46561;SDS011;32289;42.688;23.330;2023-02-01T16:39:50;6.80;;;3.40;;
46561;SDS011;32289;42.688;23.330;2023-02-01T16:43:34;8.25;;;2.17;;
46561;SDS011;32289;42.688;23.330;2023-02-01T16:47:16;4.00;;;1.20;;
46561;SDS011;32289;42.688;23.330;2023-02-01T16:51:03;2.40;;;1.48;;
46561;SDS011;32289;42.688;23.330;2023-02-01T16:54:48;4.38;;;1.95;;
46561;SDS011;32289;42.688;23.330;2023-02-01T16:58:31;2.50;;;1.02;;
46561;SDS011;32289;42.688;23.330;2023-02-01T17:02:12;4.03;;;1.60;;
46561;SDS011;32289;42.688;23.330;2023-02-01T17:05:55;4.05;;;2.13;;
46561;SDS011;32289;42.688;23.330;2023-02-01T17:09:39;3.78;;;1.60;;
46561;SDS011;32289;42.688;23.330;2023-02-01T17:13:19;7.97;;;3.75;;
46561;SDS011;32289;42.688;23.330;2023-02-01T17:17:00;4.05;;;2.65;;
46561;SDS011;32289;42.688;23.330;2023-02-01T17:20:41;3.33;;;1.67;;
46561;SDS011;32289;42.688;23.330;2023-02-01T17:24:23;3.25;;;1.60;;
46561;SDS011;32289;42.688;23.330;2023-02-01T17:28:06;7.72;;;2.13;;
46561;SDS011;32289;42.688;23.330;2023-02-01T17:31:47;5.68;;;1.75;;
46561;SDS011;32289;42.688;23.330;2023-02-01T17:35:30;4.85;;;1.90;;
46561;SDS011;32289;42.688;23.330;2023-02-01T17:39:11;4.07;;;1.45;;
46561;SDS011;32289;42.688;23.330;2023-02-01T17:43:18;6.35;;;2.20;;
46561;SDS011;32289;42.688;23.330;2023-02-01T17:47:01;4.15;;;1.90;;
46561;SDS011;32289;42.688;23.330;2023-02-01T17:50:42;6.55;;;1.70;;
46561;SDS011;32289;42.688;23.330;2023-02-01T17:54:22;5.95;;;2.33;;
46561;SDS011;32289;42.688;23.330;2023-02-01T17:58:05;6.07;;;3.15;;
46561;SDS011;32289;42.688;23.330;2023-02-01T18:01:46;3.22;;;1.50;;
46561;SDS011;32289;42.688;23.330;2023-02-01T18:05:39;6.85;;;1.67;;
46561;SDS011;32289;42.688;23.330;2023-02-01T18:09:22;6.32;;;2.00;;
46561;SDS011;32289;42.688;23.330;2023-02-01T18:13:03;2.53;;;1.63;;
46561;SDS011;32289;42.688;23.330;2023-02-01T18:16:44;10.52;;;1.98;;
46561;SDS011;32289;42.688;23.330;2023-02-01T18:20:25;3.33;;;1.60;;
46561;SDS011;32289;42.688;23.330;2023-02-01T18:24:09;6.70;;;1.83;;
46561;SDS011;32289;42.688;23.330;2023-02-01T18:27:55;4.88;;;2.53;;
46561;SDS011;32289;42.688;23.330;2023-02-01T18:31:38;6.63;;;2.75;;
46561;SDS011;32289;42.688;23.330;2023-02-01T18:35:26;10.07;;;4.10;;
46561;SDS011;32289;42.688;23.330;2023-02-01T18:39:08;11.45;;;4.00;;
46561;SDS011;32289;42.688;23.330;2023-02-01T18:42:50;9.30;;;4.40;;
46561;SDS011;32289;42.688;23.330;2023-02-01T18:46:31;8.27;;;3.78;;
46561;SDS011;32289;42.688;23.330;2023-02-01T18:50:15;7.65;;;3.38;;
46561;SDS011;32289;42.688;23.330;2023-02-01T18:53:56;11.43;;;5.47;;
46561;SDS011;32289;42.688;23.330;2023-02-01T18:57:38;14.98;;;6.30;;
46561;SDS011;32289;42.688;23.330;2023-02-01T19:01:19;17.83;;;7.70;;
46561;SDS011;32289;42.688;23.330;2023-02-01T19:05:00;15.30;;;7.10;;
46561;SDS011;32289;42.688;23.330;2023-02-01T19:08:45;24.85;;;6.72;;
46561;SDS011;32289;42.688;23.330;2023-02-01T19:12:27;16.05;;;7.18;;
46561;SDS011;32289;42.688;23.330;2023-02-01T19:16:08;20.48;;;7.63;;
46561;SDS011;32289;42.688;23.330;2023-02-01T19:19:50;11.15;;;4.25;;
46561;SDS011;32289;42.688;23.330;2023-02-01T19:23:31;15.32;;;5.47;;
46561;SDS011;32289;42.688;23.330;2023-02-01T19:27:12;12.35;;;6.07;;
46561;SDS011;32289;42.688;23.330;2023-02-01T19:30:59;14.27;;;5.63;;
46561;SDS011;32289;42.688;23.330;2023-02-01T19:34:41;14.17;;;5.00;;
46561;SDS011;32289;42.688;23.330;2023-02-01T19:38:22;10.35;;;4.05;;
46561;SDS011;32289;42.688;23.330;2023-02-01T19:42:03;17.70;;;6.65;;
46561;SDS011;32289;42.688;23.330;2023-02-01T19:45:44;13.13;;;5.53;;
46561;SDS011;32289;42.688;23.330;2023-02-01T19:49:25;10.30;;;5.28;;
46561;SDS011;32289;42.688;23.330;2023-02-01T19:53:06;25.05;;;6.50;;
46561;SDS011;32289;42.688;23.330;2023-02-01T19:56:46;12.02;;;4.55;;
46561;SDS011;32289;42.688;23.330;2023-02-01T20:00:30;9.52;;;5.47;;
46561;SDS011;32289;42.688;23.330;2023-02-01T20:04:15;13.80;;;5.80;;
46561;SDS011;32289;42.688;23.330;2023-02-01T20:07:56;14.15;;;5.85;;
46561;SDS011;32289;42.688;23.330;2023-02-01T20:11:38;17.45;;;8.15;;
46561;SDS011;32289;42.688;23.330;2023-02-01T20:15:19;12.80;;;5.18;;
46561;SDS011;32289;42.688;23.330;2023-02-01T20:19:01;19.70;;;7.85;;
46561;SDS011;32289;42.688;23.330;2023-02-01T20:22:42;21.20;;;8.63;;
46561;SDS011;32289;42.688;23.330;2023-02-01T20:26:25;22.95;;;7.05;;
46561;SDS011;32289;42.688;23.330;2023-02-01T20:30:05;14.63;;;5.85;;
46561;SDS011;32289;42.688;23.330;2023-02-01T20:33:47;14.70;;;6.50;;
46561;SDS011;32289;42.688;23.330;2023-02-01T20:37:27;21.58;;;6.20;;
46561;SDS011;32289;42.688;23.330;2023-02-01T20:41:08;11.02;;;5.60;;
46561;SDS011;32289;42.688;23.330;2023-02-01T20:44:49;16.08;;;6.30;;
46561;SDS011;32289;42.688;23.330;2023-02-01T20:48:29;18.25;;;5.43;;
46561;SDS011;32289;42.688;23.330;2023-02-01T20:52:11;13.10;;;5.68;;
46561;SDS011;32289;42.688;23.330;2023-02-01T20:55:52;15.32;;;5.53;;
46561;SDS011;32289;42.688;23.330;2023-02-01T20:59:34;15.48;;;5.50;;
46561;SDS011;32289;42.688;23.330;2023-02-01T21:03:15;15.05;;;5.22;;
46561;SDS011;32289;42.688;23.330;2023-02-01T21:06:57;9.55;;;4.70;;
46561;SDS011;32289;42.688;23.330;2023-02-01T21:10:38;16.83;;;6.45;;
46561;SDS011;32289;42.688;23.330;2023-02-01T21:14:19;11.90;;;5.97;;
46561;SDS011;32289;42.688;23.330;2023-02-01T21:18:00;15.30;;;6.00;;
46561;SDS011;32289;42.688;23.330;2023-02-01T21:21:43;14.32;;;3.83;;
46561;SDS011;32289;42.688;23.330;2023-02-01T21:25:23;8.57;;;4.05;;
46561;SDS011;32289;42.688;23.330;2023-02-01T21:29:04;15.95;;;5.45;;
46561;SDS011;32289;42.688;23.330;2023-02-01T21:32:46;10.38;;;5.40;;
46561;SDS011;32289;42.688;23.330;2023-02-01T21:36:28;13.07;;;6.05;;
46561;SDS011;32289;42.688;23.330;2023-02-01T21:40:15;13.57;;;6.15;;
46561;SDS011;32289;42.688;23.330;2023-02-01T21:43:56;13.20;;;4.13;;
46561;SDS011;32289;42.688;23.330;2023-02-01T21:47:37;20.40;;;5.40;;
46561;SDS011;32289;42.688;23.330;2023-02-01T21:51:17;7.90;;;3.92;;
46561;SDS011;32289;42.688;23.330;2023-02-01T21:54:58;8.27;;;4.40;;
46561;SDS011;32289;42.688;23.330;2023-02-01T21:58:39;21.92;;;5.15;;
46561;SDS011;32289;42.688;23.330;2023-02-01T22:02:20;10.10;;;5.53;;
46561;SDS011;32289;42.688;23.330;2023-02-01T22:06:01;15.02;;;5.05;;
46561;SDS011;32289;42.688;23.330;2023-02-01T22:09:42;13.60;;;5.90;;
46561;SDS011;32289;42.688;23.330;2023-02-01T22:13:23;14.65;;;5.50;;
46561;SDS011;32289;42.688;23.330;2023-02-01T22:17:04;12.90;;;4.43;;
46561;SDS011;32289;42.688;23.330;2023-02-01T22:20:45;13.57;;;5.20;;
46561;SDS011;32289;42.688;23.330;2023-02-01T22:24:25;11.75;;;4.70;;
46561;SDS011;32289;42.688;23.330;2023-02-01T22:28:06;10.35;;;4.03;;
46561;SDS011;32289;42.688;23.330;2023-02-01T22:31:47;15.63;;;5.38;;
46561;SDS011;32289;42.688;23.330;2023-02-01T22:35:28;10.23;;;5.30;;
46561;SDS011;32289;42.688;23.330;2023-02-01T22:39:09;11.65;;;4.95;;
46561;SDS011;32289;42.688;23.330;2023-02-01T22:42:50;15.82;;;6.25;;
46561;SDS011;32289;42.688;23.330;2023-02-01T22:46:31;10.63;;;4.40;;
46561;SDS011;32289;42.688;23.330;2023-02-01T22:50:12;11.63;;;4.38;;
46561;SDS011;32289;42.688;23.330;2023-02-01T22:53:52;14.98;;;5.32;;
46561;SDS011;32289;42.688;23.330;2023-02-01T22:57:37;11.77;;;4.28;;
46561;SDS011;32289;42.688;23.330;2023-02-01T23:01:18;11.73;;;4.00;;
46561;SDS011;32289;42.688;23.330;2023-02-01T23:04:58;10.32;;;3.65;;
46561;SDS011;32289;42.688;23.330;2023-02-01T23:08:39;4.45;;;1.33;;
46561;SDS011;32289;42.688;23.330;2023-02-01T23:12:20;4.32;;;1.50;;
46561;SDS011;32289;42.688;23.330;2023-02-01T23:16:05;2.50;;;1.20;;
46561;SDS011;32289;42.688;23.330;2023-02-01T23:19:53;3.67;;;1.27;;
46561;SDS011;32289;42.688;23.330;2023-02-01T23:23:33;1.13;;;0.73;;
46561;SDS011;32289;42.688;23.330;2023-02-01T23:27:15;0.75;;;0.55;;
46561;SDS011;32289;42.688;23.330;2023-02-01T23:30:56;1.67;;;0.85;;
46561;SDS011;32289;42.688;23.330;2023-02-01T23:34:44;3.00;;;1.02;;
46561;SDS011;32289;42.688;23.330;2023-02-01T23:38:25;1.02;;;0.63;;
46561;SDS011;32289;42.688;23.330;2023-02-01T23:42:10;8.85;;;0.93;;
46561;SDS011;32289;42.688;23.330;2023-02-01T23:45:55;1.27;;;0.80;;
46561;SDS011;32289;42.688;23.330;2023-02-01T23:49:37;7.88;;;1.85;;
46561;SDS011;32289;42.688;23.330;2023-02-01T23:53:18;2.40;;;1.20;;
46561;SDS011;32289;42.688;23.330;2023-02-01T23:56:59;2.97;;;1.27;;
